MAU289 FMMI-FIMP
Flight info
| Callsign | MAU289 |
|---|---|
| Flight time | 1h 27m |
| Altitude | 41000 |
| Route | PIPRI1E TE UA400 RASMA RASMA2E |
| Aircraft | A359/H-SDE2E3GHIJ3J4J5LM1ORWXY/LB1D1 |
Departure
| Time | 2026-04-24 09:33 |
|---|---|
| Airport | Ivato International Airport (FMMI) |
Arrival
| Time | 2026-04-24 11:00 |
|---|---|
| Airport | Sir Seewoosagur Ramgoolam International Airport (FIMP) |
| Time | Latitude | Longitude | Altitude | Speed | Heading |
|---|---|---|---|---|---|
| 2026-04-24 09:07 | -18.79979 | 47.47919 | 4172 ft | 0 kts | 188° |
| 2026-04-24 09:20 | -18.79976 | 47.47920 | 4172 ft | 3 kts | 188° |
| 2026-04-24 09:21 | -18.79950 | 47.47924 | 4172 ft | 4 kts | 191° |
| 2026-04-24 09:21 | -18.79924 | 47.47931 | 4172 ft | 4 kts | 197° |
| 2026-04-24 09:21 | -18.79899 | 47.47942 | 4172 ft | 4 kts | 221° |
| 2026-04-24 09:21 | -18.79889 | 47.47958 | 4172 ft | 1 kts | 278° |
| 2026-04-24 09:22 | -18.79888 | 47.47959 | 4172 ft | 0 kts | 278° |
| 2026-04-24 09:22 | -18.79887 | 47.47959 | 4172 ft | 0 kts | 278° |
| 2026-04-24 09:22 | -18.79886 | 47.47959 | 4172 ft | 0 kts | 278° |
| 2026-04-24 09:23 | -18.79885 | 47.47959 | 4172 ft | 0 kts | 278° |
| 2026-04-24 09:23 | -18.79884 | 47.47960 | 4172 ft | 0 kts | 278° |
| 2026-04-24 09:24 | -18.79883 | 47.47960 | 4172 ft | 0 kts | 278° |
| 2026-04-24 09:24 | -18.79882 | 47.47960 | 4172 ft | 0 kts | 278° |
| 2026-04-24 09:24 | -18.79881 | 47.47960 | 4172 ft | 0 kts | 278° |
| 2026-04-24 09:25 | -18.79880 | 47.47960 | 4172 ft | 0 kts | 278° |
| 2026-04-24 09:25 | -18.79879 | 47.47960 | 4172 ft | 0 kts | 278° |
| 2026-04-24 09:25 | -18.79878 | 47.47960 | 4172 ft | 0 kts | 278° |
| 2026-04-24 09:26 | -18.79877 | 47.47960 | 4172 ft | 0 kts | 278° |
| 2026-04-24 09:26 | -18.79876 | 47.47960 | 4172 ft | 0 kts | 278° |
| 2026-04-24 09:26 | -18.79875 | 47.47960 | 4172 ft | 0 kts | 278° |
| 2026-04-24 09:28 | -18.79870 | 47.47898 | 4172 ft | 11 kts | 275° |
| 2026-04-24 09:28 | -18.79853 | 47.47814 | 4172 ft | 13 kts | 285° |
| 2026-04-24 09:28 | -18.79832 | 47.47718 | 4172 ft | 14 kts | 279° |
| 2026-04-24 09:29 | -18.79797 | 47.47618 | 4172 ft | 15 kts | 312° |
| 2026-04-24 09:29 | -18.79696 | 47.47602 | 4171 ft | 16 kts | 5° |
| 2026-04-24 09:29 | -18.79637 | 47.47522 | 4169 ft | 16 kts | 281° |
| 2026-04-24 09:29 | -18.79617 | 47.47399 | 4168 ft | 18 kts | 279° |
| 2026-04-24 09:30 | -18.79596 | 47.47260 | 4168 ft | 20 kts | 279° |
| 2026-04-24 09:30 | -18.79573 | 47.47108 | 4167 ft | 22 kts | 279° |
| 2026-04-24 09:30 | -18.79549 | 47.46943 | 4167 ft | 23 kts | 278° |
| 2026-04-24 09:30 | -18.79524 | 47.46772 | 4168 ft | 24 kts | 279° |
| 2026-04-24 09:31 | -18.79501 | 47.46621 | 4167 ft | 19 kts | 279° |
| 2026-04-24 09:31 | -18.79470 | 47.46521 | 4167 ft | 13 kts | 309° |
| 2026-04-24 09:31 | -18.79454 | 47.46474 | 4168 ft | 2 kts | 235° |
| 2026-04-24 09:31 | -18.79459 | 47.46472 | 4168 ft | 0 kts | 206° |
| 2026-04-24 09:32 | -18.79474 | 47.46479 | 4167 ft | 2 kts | 137° |
| 2026-04-24 09:32 | -18.79483 | 47.46506 | 4167 ft | 7 kts | 105° |
| 2026-04-24 09:32 | -18.79504 | 47.46631 | 4167 ft | 44 kts | 99° |
| 2026-04-24 09:32 | -18.79585 | 47.47182 | 4167 ft | 106 kts | 99° |
| 2026-04-24 09:33 | -18.79730 | 47.48142 | 4171 ft | 157 kts | 100° |
| 2026-04-24 09:33 | -18.79836 | 47.48910 | 4581 ft | 155 kts | 99° |
| 2026-04-24 09:33 | -18.80022 | 47.50333 | 5762 ft | 144 kts | 99° |
| 2026-04-24 09:33 | -18.80192 | 47.51440 | 6138 ft | 164 kts | 101° |
| 2026-04-24 09:34 | -18.80326 | 47.52263 | 6324 ft | 180 kts | 100° |
| 2026-04-24 09:34 | -18.80544 | 47.53646 | 6674 ft | 202 kts | 100° |
| 2026-04-24 09:34 | -18.80783 | 47.55183 | 7075 ft | 220 kts | 101° |
| 2026-04-24 09:34 | -18.81125 | 47.56825 | 7518 ft | 242 kts | 104° |
| 2026-04-24 09:35 | -18.81542 | 47.58626 | 8006 ft | 260 kts | 104° |
| 2026-04-24 09:35 | -18.81967 | 47.60499 | 8913 ft | 264 kts | 103° |
| 2026-04-24 09:35 | -18.82394 | 47.62409 | 9791 ft | 268 kts | 103° |
| 2026-04-24 09:35 | -18.82825 | 47.64359 | 10484 ft | 280 kts | 103° |
| 2026-04-24 09:36 | -18.83280 | 47.66431 | 10934 ft | 300 kts | 103° |
| 2026-04-24 09:36 | -18.83765 | 47.68648 | 11374 ft | 318 kts | 103° |
| 2026-04-24 09:36 | -18.84271 | 47.70973 | 11919 ft | 330 kts | 103° |
| 2026-04-24 09:36 | -18.84787 | 47.73340 | 12699 ft | 333 kts | 103° |
| 2026-04-24 09:37 | -18.85309 | 47.75736 | 13476 ft | 336 kts | 103° |
| 2026-04-24 09:37 | -18.85838 | 47.78172 | 14058 ft | 344 kts | 103° |
| 2026-04-24 09:37 | -18.86381 | 47.80671 | 14532 ft | 353 kts | 103° |
| 2026-04-24 09:37 | -18.86926 | 47.83187 | 15317 ft | 351 kts | 104° |
| 2026-04-24 09:38 | -18.87469 | 47.85698 | 16043 ft | 352 kts | 104° |
| 2026-04-24 09:38 | -18.88021 | 47.88239 | 16577 ft | 358 kts | 104° |
| 2026-04-24 09:38 | -18.88581 | 47.90824 | 17088 ft | 364 kts | 104° |
| 2026-04-24 09:38 | -18.89137 | 47.93433 | 17737 ft | 366 kts | 104° |
| 2026-04-24 09:39 | -18.89679 | 47.96028 | 18374 ft | 369 kts | 104° |
| 2026-04-24 09:39 | -18.90237 | 47.98692 | 18800 ft | 374 kts | 104° |
| 2026-04-24 09:39 | -18.90801 | 48.01385 | 19302 ft | 378 kts | 105° |
| 2026-04-24 09:39 | -18.91372 | 48.04111 | 19776 ft | 382 kts | 104° |
| 2026-04-24 09:40 | -18.91949 | 48.06868 | 20282 ft | 386 kts | 104° |
| 2026-04-24 09:40 | -18.92530 | 48.09643 | 20823 ft | 389 kts | 104° |
| 2026-04-24 09:40 | -18.93115 | 48.12443 | 21368 ft | 392 kts | 104° |
| 2026-04-24 09:40 | -18.93706 | 48.15269 | 21899 ft | 396 kts | 104° |
| 2026-04-24 09:41 | -18.94301 | 48.18119 | 22430 ft | 399 kts | 104° |
| 2026-04-24 09:41 | -18.94901 | 48.20993 | 22983 ft | 402 kts | 104° |
| 2026-04-24 09:41 | -18.95502 | 48.23887 | 23551 ft | 405 kts | 104° |
| 2026-04-24 09:41 | -18.96069 | 48.26809 | 24066 ft | 408 kts | 103° |
| 2026-04-24 09:42 | -18.96607 | 48.29767 | 24506 ft | 412 kts | 103° |
| 2026-04-24 09:42 | -18.97136 | 48.32754 | 24984 ft | 416 kts | 103° |
| 2026-04-24 09:42 | -18.97670 | 48.35773 | 25465 ft | 419 kts | 103° |
| 2026-04-24 09:42 | -18.98211 | 48.38811 | 25935 ft | 423 kts | 103° |
| 2026-04-24 09:43 | -18.98763 | 48.41884 | 26375 ft | 427 kts | 103° |
| 2026-04-24 09:43 | -18.99322 | 48.44978 | 26881 ft | 431 kts | 103° |
| 2026-04-24 09:43 | -18.99890 | 48.48100 | 27352 ft | 434 kts | 103° |
| 2026-04-24 09:43 | -19.00462 | 48.51249 | 27805 ft | 439 kts | 103° |
| 2026-04-24 09:44 | -19.01040 | 48.54426 | 28258 ft | 443 kts | 103° |
| 2026-04-24 09:44 | -19.01622 | 48.57633 | 28685 ft | 447 kts | 103° |
| 2026-04-24 09:44 | -19.02209 | 48.60869 | 29126 ft | 450 kts | 103° |
| 2026-04-24 09:44 | -19.02799 | 48.64132 | 29581 ft | 454 kts | 103° |
| 2026-04-24 09:45 | -19.03394 | 48.67424 | 30004 ft | 458 kts | 103° |
| 2026-04-24 09:45 | -19.03993 | 48.70746 | 30371 ft | 462 kts | 103° |
| 2026-04-24 09:45 | -19.04597 | 48.74091 | 30733 ft | 465 kts | 103° |
| 2026-04-24 09:45 | -19.05202 | 48.77456 | 31101 ft | 467 kts | 103° |
| 2026-04-24 09:46 | -19.05811 | 48.80840 | 31466 ft | 470 kts | 103° |
| 2026-04-24 09:46 | -19.06423 | 48.84244 | 31791 ft | 473 kts | 103° |
| 2026-04-24 09:46 | -19.07039 | 48.87677 | 32138 ft | 476 kts | 103° |
| 2026-04-24 09:46 | -19.07657 | 48.91125 | 32488 ft | 479 kts | 103° |
| 2026-04-24 09:47 | -19.08279 | 48.94595 | 32828 ft | 482 kts | 103° |
| 2026-04-24 09:47 | -19.08902 | 48.98078 | 33161 ft | 484 kts | 103° |
| 2026-04-24 09:47 | -19.09529 | 49.01586 | 33487 ft | 487 kts | 103° |
| 2026-04-24 09:47 | -19.10159 | 49.05115 | 33787 ft | 490 kts | 103° |
| 2026-04-24 09:48 | -19.10791 | 49.08658 | 34072 ft | 492 kts | 103° |
| 2026-04-24 09:48 | -19.11426 | 49.12222 | 34305 ft | 495 kts | 103° |
| 2026-04-24 09:48 | -19.12064 | 49.15807 | 34550 ft | 497 kts | 103° |
| 2026-04-24 09:48 | -19.12701 | 49.19394 | 34882 ft | 496 kts | 103° |
| 2026-04-24 09:49 | -19.13337 | 49.22979 | 35255 ft | 495 kts | 103° |
| 2026-04-24 09:49 | -19.13970 | 49.26555 | 35598 ft | 495 kts | 103° |
| 2026-04-24 09:49 | -19.14602 | 49.30126 | 35935 ft | 494 kts | 103° |
| 2026-04-24 09:49 | -19.15235 | 49.33704 | 36284 ft | 494 kts | 103° |
| 2026-04-24 09:50 | -19.15864 | 49.37264 | 36609 ft | 493 kts | 103° |
| 2026-04-24 09:50 | -19.16493 | 49.40830 | 36927 ft | 493 kts | 103° |
| 2026-04-24 09:50 | -19.17123 | 49.44400 | 37233 ft | 492 kts | 103° |
| 2026-04-24 09:50 | -19.17749 | 49.47959 | 37551 ft | 492 kts | 103° |
| 2026-04-24 09:51 | -19.18366 | 49.51467 | 37850 ft | 491 kts | 103° |
| 2026-04-24 09:51 | -19.18990 | 49.55016 | 38159 ft | 491 kts | 103° |
| 2026-04-24 09:51 | -19.19612 | 49.58563 | 38457 ft | 490 kts | 103° |
| 2026-04-24 09:51 | -19.20233 | 49.62107 | 38703 ft | 490 kts | 103° |
| 2026-04-24 09:52 | -19.20853 | 49.65650 | 38934 ft | 490 kts | 103° |
| 2026-04-24 09:52 | -19.21471 | 49.69188 | 39164 ft | 489 kts | 103° |
| 2026-04-24 09:52 | -19.22089 | 49.72727 | 39381 ft | 489 kts | 103° |
| 2026-04-24 09:52 | -19.22705 | 49.76259 | 39595 ft | 488 kts | 103° |
| 2026-04-24 09:53 | -19.23320 | 49.79789 | 39811 ft | 488 kts | 103° |
| 2026-04-24 09:53 | -19.23933 | 49.83312 | 40005 ft | 487 kts | 103° |
| 2026-04-24 09:53 | -19.24546 | 49.86834 | 40208 ft | 487 kts | 103° |
| 2026-04-24 09:53 | -19.25158 | 49.90362 | 40387 ft | 486 kts | 103° |
| 2026-04-24 09:54 | -19.25768 | 49.93879 | 40574 ft | 486 kts | 103° |
| 2026-04-24 09:54 | -19.26377 | 49.97392 | 40750 ft | 486 kts | 103° |
| 2026-04-24 09:54 | -19.26986 | 50.00914 | 40911 ft | 486 kts | 103° |
| 2026-04-24 09:54 | -19.27595 | 50.04439 | 40937 ft | 489 kts | 103° |
| 2026-04-24 09:55 | -19.28935 | 50.11527 | 40932 ft | 489 kts | 112° |
| 2026-04-24 09:55 | -19.31584 | 50.18127 | 40936 ft | 487 kts | 115° |
| 2026-04-24 09:56 | -19.33242 | 50.25089 | 40940 ft | 492 kts | 95° |
| 2026-04-24 09:56 | -19.34193 | 50.32249 | 40936 ft | 491 kts | 102° |
| 2026-04-24 09:57 | -19.35336 | 50.39380 | 40934 ft | 491 kts | 102° |
| 2026-04-24 09:57 | -19.36506 | 50.46507 | 40937 ft | 491 kts | 102° |
| 2026-04-24 09:58 | -19.37704 | 50.53621 | 40936 ft | 491 kts | 102° |
| 2026-04-24 09:58 | -19.38911 | 50.60731 | 40939 ft | 490 kts | 102° |
| 2026-04-24 09:59 | -19.40115 | 50.67840 | 40936 ft | 490 kts | 102° |
| 2026-04-24 09:59 | -19.41314 | 50.74949 | 40930 ft | 490 kts | 102° |
| 2026-04-24 10:00 | -19.42510 | 50.82061 | 40933 ft | 490 kts | 102° |
| 2026-04-24 10:00 | -19.43703 | 50.89176 | 40935 ft | 490 kts | 102° |
| 2026-04-24 10:01 | -19.44893 | 50.96283 | 40930 ft | 490 kts | 102° |
| 2026-04-24 10:01 | -19.46079 | 51.03391 | 40930 ft | 490 kts | 102° |
| 2026-04-24 10:02 | -19.47262 | 51.10496 | 40928 ft | 490 kts | 102° |
| 2026-04-24 10:02 | -19.48442 | 51.17604 | 40925 ft | 490 kts | 102° |
| 2026-04-24 10:03 | -19.49620 | 51.24714 | 40925 ft | 490 kts | 102° |
| 2026-04-24 10:03 | -19.50796 | 51.31827 | 40924 ft | 490 kts | 102° |
| 2026-04-24 10:04 | -19.51967 | 51.38933 | 40925 ft | 490 kts | 102° |
| 2026-04-24 10:04 | -19.53129 | 51.45997 | 40922 ft | 490 kts | 102° |
| 2026-04-24 10:05 | -19.54296 | 51.53112 | 40922 ft | 490 kts | 102° |
| 2026-04-24 10:05 | -19.55459 | 51.60220 | 40923 ft | 489 kts | 102° |
| 2026-04-24 10:06 | -19.57197 | 51.70879 | 40919 ft | 489 kts | 102° |
| 2026-04-24 10:07 | -19.58351 | 51.77978 | 40922 ft | 489 kts | 102° |
| 2026-04-24 10:07 | -19.59503 | 51.85083 | 40924 ft | 489 kts | 102° |
| 2026-04-24 10:08 | -19.60651 | 51.92181 | 40916 ft | 488 kts | 102° |
| 2026-04-24 10:08 | -19.61797 | 51.99286 | 40916 ft | 488 kts | 102° |
| 2026-04-24 10:09 | -19.62940 | 52.06389 | 40920 ft | 488 kts | 102° |
| 2026-04-24 10:09 | -19.64079 | 52.13485 | 40917 ft | 488 kts | 102° |
| 2026-04-24 10:10 | -19.65214 | 52.20575 | 40917 ft | 488 kts | 102° |
| 2026-04-24 10:10 | -19.66348 | 52.27678 | 40915 ft | 488 kts | 102° |
| 2026-04-24 10:11 | -19.67478 | 52.34771 | 40911 ft | 488 kts | 101° |
| 2026-04-24 10:11 | -19.68606 | 52.41874 | 40910 ft | 488 kts | 101° |
| 2026-04-24 10:12 | -19.69723 | 52.48925 | 40912 ft | 488 kts | 101° |
| 2026-04-24 10:12 | -19.70845 | 52.56030 | 40915 ft | 488 kts | 101° |
| 2026-04-24 10:13 | -19.71965 | 52.63137 | 40913 ft | 488 kts | 101° |
| 2026-04-24 10:13 | -19.73083 | 52.70246 | 40916 ft | 488 kts | 101° |
| 2026-04-24 10:14 | -19.74198 | 52.77362 | 40913 ft | 488 kts | 101° |
| 2026-04-24 10:14 | -19.75309 | 52.84465 | 40907 ft | 488 kts | 101° |
| 2026-04-24 10:15 | -19.76418 | 52.91576 | 40913 ft | 488 kts | 101° |
| 2026-04-24 10:15 | -19.77522 | 52.98681 | 40916 ft | 488 kts | 101° |
| 2026-04-24 10:16 | -19.78624 | 53.05788 | 40914 ft | 487 kts | 101° |
| 2026-04-24 10:16 | -19.79722 | 53.12886 | 40909 ft | 487 kts | 101° |
| 2026-04-24 10:17 | -19.80818 | 53.19987 | 40909 ft | 487 kts | 101° |
| 2026-04-24 10:17 | -19.81911 | 53.27083 | 40914 ft | 487 kts | 101° |
| 2026-04-24 10:18 | -19.83000 | 53.34179 | 40910 ft | 486 kts | 101° |
| 2026-04-24 10:18 | -19.84086 | 53.41267 | 40912 ft | 486 kts | 101° |
| 2026-04-24 10:19 | -19.85170 | 53.48363 | 40914 ft | 487 kts | 101° |
| 2026-04-24 10:19 | -19.86250 | 53.55457 | 40907 ft | 487 kts | 101° |
| 2026-04-24 10:20 | -19.87327 | 53.62554 | 40907 ft | 486 kts | 101° |
| 2026-04-24 10:20 | -19.88220 | 53.68448 | 40909 ft | 487 kts | 101° |
| 2026-04-24 10:21 | -19.89294 | 53.75548 | 40907 ft | 486 kts | 101° |
| 2026-04-24 10:21 | -19.90361 | 53.82637 | 40907 ft | 486 kts | 101° |
| 2026-04-24 10:22 | -19.91427 | 53.89731 | 40910 ft | 486 kts | 101° |
| 2026-04-24 10:22 | -19.92490 | 53.96823 | 40911 ft | 486 kts | 101° |
| 2026-04-24 10:23 | -19.93550 | 54.03918 | 40909 ft | 487 kts | 100° |
| 2026-04-24 10:23 | -19.94610 | 54.11027 | 40902 ft | 488 kts | 101° |
| 2026-04-24 10:24 | -19.95664 | 54.18146 | 40902 ft | 488 kts | 100° |
| 2026-04-24 10:24 | -19.95818 | 54.21756 | 40910 ft | 490 kts | 89° |
| 2026-04-24 10:24 | -19.95576 | 54.25371 | 40916 ft | 491 kts | 86° |
| 2026-04-24 10:25 | -19.95487 | 54.32602 | 40911 ft | 490 kts | 99° |
| 2026-04-24 10:25 | -19.96895 | 54.39660 | 40911 ft | 489 kts | 101° |
| 2026-04-24 10:26 | -19.97316 | 54.46880 | 40911 ft | 492 kts | 85° |
| 2026-04-24 10:26 | -19.97645 | 54.54104 | 40915 ft | 491 kts | 103° |
| 2026-04-24 10:27 | -19.99665 | 54.61028 | 40910 ft | 492 kts | 108° |
| 2026-04-24 10:27 | -20.01211 | 54.68113 | 40909 ft | 493 kts | 101° |
| 2026-04-24 10:28 | -20.02385 | 54.75297 | 40908 ft | 493 kts | 99° |
| 2026-04-24 10:28 | -20.03425 | 54.82500 | 40906 ft | 494 kts | 98° |
| 2026-04-24 10:29 | -20.04446 | 54.89724 | 40909 ft | 494 kts | 99° |
| 2026-04-24 10:29 | -20.05476 | 54.96943 | 40910 ft | 494 kts | 99° |
| 2026-04-24 10:30 | -20.06510 | 55.04162 | 40904 ft | 494 kts | 98° |
| 2026-04-24 10:30 | -20.07543 | 55.11380 | 40905 ft | 494 kts | 98° |
| 2026-04-24 10:31 | -20.08574 | 55.18605 | 40745 ft | 493 kts | 98° |
| 2026-04-24 10:31 | -20.09085 | 55.22199 | 40459 ft | 490 kts | 98° |
| 2026-04-24 10:31 | -20.09595 | 55.25789 | 39816 ft | 490 kts | 98° |
| 2026-04-24 10:31 | -20.10104 | 55.29384 | 39049 ft | 493 kts | 98° |
| 2026-04-24 10:32 | -20.10617 | 55.33007 | 38233 ft | 497 kts | 98° |
| 2026-04-24 10:32 | -20.11131 | 55.36646 | 37472 ft | 497 kts | 98° |
| 2026-04-24 10:32 | -20.11644 | 55.40276 | 36798 ft | 496 kts | 98° |
| 2026-04-24 10:32 | -20.12154 | 55.43898 | 36106 ft | 494 kts | 98° |
| 2026-04-24 10:33 | -20.12663 | 55.47514 | 35414 ft | 494 kts | 98° |
| 2026-04-24 10:33 | -20.13170 | 55.51124 | 34737 ft | 493 kts | 98° |
| 2026-04-24 10:33 | -20.13662 | 55.54676 | 34223 ft | 489 kts | 96° |
| 2026-04-24 10:33 | -20.14132 | 55.58247 | 33673 ft | 485 kts | 96° |
| 2026-04-24 10:34 | -20.14593 | 55.61790 | 33108 ft | 481 kts | 96° |
| 2026-04-24 10:34 | -20.15051 | 55.65299 | 32568 ft | 477 kts | 96° |
| 2026-04-24 10:34 | -20.15506 | 55.68781 | 32070 ft | 473 kts | 96° |
| 2026-04-24 10:34 | -20.15963 | 55.72272 | 31548 ft | 469 kts | 96° |
| 2026-04-24 10:35 | -20.16410 | 55.75695 | 31047 ft | 465 kts | 96° |
| 2026-04-24 10:35 | -20.16848 | 55.79051 | 30546 ft | 462 kts | 96° |
| 2026-04-24 10:35 | -20.17295 | 55.82474 | 30048 ft | 459 kts | 97° |
| 2026-04-24 10:35 | -20.17726 | 55.85785 | 29495 ft | 456 kts | 96° |
| 2026-04-24 10:36 | -20.18160 | 55.89113 | 28992 ft | 452 kts | 96° |
| 2026-04-24 10:36 | -20.18589 | 55.92420 | 28495 ft | 448 kts | 97° |
| 2026-04-24 10:36 | -20.19013 | 55.95682 | 28002 ft | 444 kts | 96° |
| 2026-04-24 10:36 | -20.19434 | 55.98922 | 27513 ft | 440 kts | 96° |
| 2026-04-24 10:37 | -20.19843 | 56.02136 | 27014 ft | 436 kts | 96° |
| 2026-04-24 10:37 | -20.20018 | 56.05335 | 26550 ft | 431 kts | 89° |
| 2026-04-24 10:37 | -20.20039 | 56.08508 | 26062 ft | 427 kts | 88° |
| 2026-04-24 10:37 | -20.20039 | 56.11659 | 25577 ft | 424 kts | 88° |
| 2026-04-24 10:38 | -20.20040 | 56.14786 | 25096 ft | 421 kts | 88° |
| 2026-04-24 10:38 | -20.18720 | 55.93394 | 28405 ft | 447 kts | 96° |
| 2026-04-24 10:38 | -20.19149 | 55.96669 | 27677 ft | 448 kts | 96° |
| 2026-04-24 10:38 | -20.19573 | 55.99962 | 27025 ft | 448 kts | 96° |
| 2026-04-24 10:39 | -20.19941 | 56.03235 | 26514 ft | 444 kts | 92° |
| 2026-04-24 10:39 | -20.20033 | 56.06497 | 26018 ft | 439 kts | 88° |
| 2026-04-24 10:39 | -20.20041 | 56.09729 | 25531 ft | 435 kts | 88° |
| 2026-04-24 10:39 | -20.20041 | 56.12934 | 25037 ft | 431 kts | 88° |
| 2026-04-24 10:40 | -20.20041 | 56.16110 | 24535 ft | 428 kts | 89° |
| 2026-04-24 10:40 | -20.20043 | 56.19267 | 24035 ft | 425 kts | 88° |
| 2026-04-24 10:40 | -20.20047 | 56.22402 | 23535 ft | 422 kts | 88° |
| 2026-04-24 10:40 | -20.20051 | 56.25512 | 22974 ft | 419 kts | 89° |
| 2026-04-24 10:41 | -20.20056 | 56.28593 | 22459 ft | 413 kts | 88° |
| 2026-04-24 10:41 | -20.20059 | 56.31632 | 21993 ft | 408 kts | 88° |
| 2026-04-24 10:41 | -20.20062 | 56.34643 | 21487 ft | 404 kts | 88° |
| 2026-04-24 10:41 | -20.20064 | 56.37615 | 20992 ft | 400 kts | 88° |
| 2026-04-24 10:42 | -20.20066 | 56.40557 | 20508 ft | 395 kts | 89° |
| 2026-04-24 10:42 | -20.20068 | 56.43465 | 20028 ft | 391 kts | 88° |
| 2026-04-24 10:42 | -20.20069 | 56.46344 | 19553 ft | 387 kts | 89° |
| 2026-04-24 10:42 | -20.20070 | 56.49193 | 19074 ft | 383 kts | 88° |
| 2026-04-24 10:43 | -20.20070 | 56.52009 | 18624 ft | 379 kts | 89° |
| 2026-04-24 10:43 | -20.20069 | 56.54803 | 18144 ft | 375 kts | 89° |
| 2026-04-24 10:43 | -20.20069 | 56.57562 | 17642 ft | 371 kts | 89° |
| 2026-04-24 10:43 | -20.20068 | 56.60283 | 17182 ft | 365 kts | 89° |
| 2026-04-24 10:44 | -20.20066 | 56.62972 | 16731 ft | 360 kts | 89° |
| 2026-04-24 10:44 | -20.20065 | 56.65623 | 16292 ft | 355 kts | 89° |
| 2026-04-24 10:44 | -20.20063 | 56.68231 | 15848 ft | 350 kts | 89° |
| 2026-04-24 10:44 | -20.20060 | 56.70804 | 15426 ft | 345 kts | 89° |
| 2026-04-24 10:45 | -20.20057 | 56.73341 | 14991 ft | 341 kts | 89° |
| 2026-04-24 10:45 | -20.20057 | 56.75812 | 14591 ft | 336 kts | 89° |
| 2026-04-24 10:45 | -20.20054 | 56.78286 | 14183 ft | 332 kts | 89° |
| 2026-04-24 10:45 | -20.20049 | 56.80730 | 13772 ft | 328 kts | 89° |
| 2026-04-24 10:46 | -20.20044 | 56.83144 | 13329 ft | 324 kts | 89° |
| 2026-04-24 10:46 | -20.20039 | 56.85521 | 12918 ft | 319 kts | 89° |
| 2026-04-24 10:46 | -20.20035 | 56.87865 | 12528 ft | 314 kts | 89° |
| 2026-04-24 10:46 | -20.20030 | 56.90181 | 12138 ft | 312 kts | 89° |
| 2026-04-24 10:47 | -20.20024 | 56.92479 | 11750 ft | 309 kts | 89° |
| 2026-04-24 10:47 | -20.20019 | 56.94761 | 11362 ft | 308 kts | 90° |
| 2026-04-24 10:47 | -20.20013 | 56.97036 | 10963 ft | 306 kts | 89° |
| 2026-04-24 10:47 | -20.20008 | 56.99275 | 10756 ft | 296 kts | 89° |
| 2026-04-24 10:48 | -20.20002 | 57.01401 | 10607 ft | 276 kts | 89° |
| 2026-04-24 10:48 | -20.19997 | 57.03399 | 10498 ft | 268 kts | 89° |
| 2026-04-24 10:48 | -20.19991 | 57.05377 | 10309 ft | 266 kts | 89° |
| 2026-04-24 10:48 | -20.19985 | 57.07331 | 10045 ft | 263 kts | 89° |
| 2026-04-24 10:49 | -20.19978 | 57.09276 | 9770 ft | 266 kts | 89° |
| 2026-04-24 10:49 | -20.19971 | 57.11305 | 9614 ft | 280 kts | 89° |
| 2026-04-24 10:49 | -20.19965 | 57.13369 | 9402 ft | 277 kts | 89° |
| 2026-04-24 10:49 | -20.19957 | 57.15428 | 8898 ft | 278 kts | 89° |
| 2026-04-24 10:50 | -20.19950 | 57.17479 | 8527 ft | 277 kts | 89° |
| 2026-04-24 10:50 | -20.19942 | 57.19524 | 8222 ft | 276 kts | 89° |
| 2026-04-24 10:50 | -20.19934 | 57.21555 | 7921 ft | 273 kts | 89° |
| 2026-04-24 10:50 | -20.19926 | 57.23574 | 7624 ft | 273 kts | 89° |
| 2026-04-24 10:51 | -20.19919 | 57.25590 | 7322 ft | 271 kts | 90° |
| 2026-04-24 10:51 | -20.20099 | 57.27520 | 7043 ft | 271 kts | 103° |
| 2026-04-24 10:51 | -20.20892 | 57.29328 | 6747 ft | 271 kts | 122° |
| 2026-04-24 10:51 | -20.21963 | 57.30969 | 6442 ft | 270 kts | 124° |
| 2026-04-24 10:52 | -20.23059 | 57.32583 | 6139 ft | 268 kts | 124° |
| 2026-04-24 10:52 | -20.24146 | 57.34193 | 5827 ft | 267 kts | 124° |
| 2026-04-24 10:52 | -20.25222 | 57.35798 | 5533 ft | 265 kts | 124° |
| 2026-04-24 10:52 | -20.26276 | 57.37374 | 5354 ft | 256 kts | 123° |
| 2026-04-24 10:53 | -20.27281 | 57.38879 | 5216 ft | 243 kts | 123° |
| 2026-04-24 10:53 | -20.28239 | 57.40315 | 5092 ft | 232 kts | 123° |
| 2026-04-24 10:53 | -20.29164 | 57.41677 | 4969 ft | 221 kts | 123° |
| 2026-04-24 10:53 | -20.30044 | 57.42971 | 4831 ft | 210 kts | 124° |
| 2026-04-24 10:54 | -20.30882 | 57.44196 | 4739 ft | 199 kts | 123° |
| 2026-04-24 10:54 | -20.31724 | 57.45299 | 4647 ft | 186 kts | 126° |
| 2026-04-24 10:54 | -20.32426 | 57.46448 | 4492 ft | 186 kts | 117° |
| 2026-04-24 10:54 | -20.33028 | 57.47653 | 4333 ft | 180 kts | 116° |
| 2026-04-24 10:55 | -20.33604 | 57.48804 | 4140 ft | 173 kts | 114° |
| 2026-04-24 10:55 | -20.34141 | 57.49927 | 3953 ft | 167 kts | 114° |
| 2026-04-24 10:55 | -20.34664 | 57.51012 | 3824 ft | 164 kts | 114° |
| 2026-04-24 10:55 | -20.35196 | 57.52093 | 3682 ft | 165 kts | 115° |
| 2026-04-24 10:56 | -20.35716 | 57.53146 | 3453 ft | 155 kts | 114° |
| 2026-04-24 10:56 | -20.36193 | 57.54131 | 3254 ft | 150 kts | 114° |
| 2026-04-24 10:56 | -20.36669 | 57.55125 | 3017 ft | 148 kts | 114° |
| 2026-04-24 10:56 | -20.37135 | 57.56099 | 2777 ft | 146 kts | 114° |
| 2026-04-24 10:57 | -20.37595 | 57.57057 | 2553 ft | 145 kts | 114° |
| 2026-04-24 10:57 | -20.38046 | 57.57999 | 2336 ft | 145 kts | 114° |
| 2026-04-24 10:57 | -20.38511 | 57.58969 | 2121 ft | 145 kts | 117° |
| 2026-04-24 10:57 | -20.38969 | 57.59918 | 1912 ft | 143 kts | 116° |
| 2026-04-24 10:58 | -20.39415 | 57.60850 | 1705 ft | 139 kts | 116° |
| 2026-04-24 10:58 | -20.39845 | 57.61745 | 1496 ft | 136 kts | 116° |
| 2026-04-24 10:58 | -20.40281 | 57.62651 | 1289 ft | 135 kts | 112° |
| 2026-04-24 10:58 | -20.40698 | 57.63524 | 1077 ft | 129 kts | 113° |
| 2026-04-24 10:59 | -20.41095 | 57.64352 | 914 ft | 124 kts | 114° |
| 2026-04-24 10:59 | -20.41491 | 57.65178 | 746 ft | 126 kts | 115° |
| 2026-04-24 10:59 | -20.41890 | 57.66021 | 480 ft | 127 kts | 113° |
| 2026-04-24 10:59 | -20.42302 | 57.66860 | 302 ft | 127 kts | 112° |
| 2026-04-24 11:00 | -20.42713 | 57.67708 | 181 ft | 126 kts | 112° |
| 2026-04-24 11:00 | -20.43048 | 57.68418 | 154 ft | 66 kts | 119° |
| 2026-04-24 11:00 | -20.43204 | 57.68739 | 145 ft | 46 kts | 116° |
| 2026-04-24 11:00 | -20.43345 | 57.69032 | 133 ft | 43 kts | 118° |
| 2026-04-24 11:01 | -20.43466 | 57.69279 | 120 ft | 26 kts | 117° |
| 2026-04-24 11:01 | -20.43530 | 57.69374 | 119 ft | 3 kts | 167° |
| 2026-04-24 11:01 | -20.43559 | 57.69366 | 121 ft | 5 kts | 205° |
| 2026-04-24 11:01 | -20.43600 | 57.69345 | 119 ft | 8 kts | 205° |
| 2026-04-24 11:02 | -20.43651 | 57.69313 | 122 ft | 8 kts | 224° |
| 2026-04-24 11:02 | -20.43650 | 57.69262 | 123 ft | 7 kts | 290° |
| 2026-04-24 11:02 | -20.43625 | 57.69207 | 124 ft | 9 kts | 296° |
| 2026-04-24 11:02 | -20.43594 | 57.69143 | 124 ft | 11 kts | 297° |
| 2026-04-24 11:03 | -20.43559 | 57.69069 | 122 ft | 12 kts | 297° |
| 2026-04-24 11:03 | -20.43521 | 57.68989 | 132 ft | 13 kts | 297° |
| 2026-04-24 11:03 | -20.43479 | 57.68901 | 137 ft | 14 kts | 297° |
| 2026-04-24 11:03 | -20.43434 | 57.68807 | 140 ft | 15 kts | 297° |
| 2026-04-24 11:04 | -20.43385 | 57.68707 | 143 ft | 16 kts | 297° |
| 2026-04-24 11:04 | -20.43334 | 57.68603 | 146 ft | 16 kts | 297° |
| 2026-04-24 11:04 | -20.43299 | 57.68531 | 149 ft | 17 kts | 297° |
| 2026-04-24 11:04 | -20.43245 | 57.68418 | 153 ft | 17 kts | 297° |
| 2026-04-24 11:05 | -20.43189 | 57.68301 | 156 ft | 18 kts | 297° |
| 2026-04-24 11:05 | -20.43135 | 57.68191 | 159 ft | 13 kts | 297° |
| 2026-04-24 11:05 | -20.43138 | 57.68112 | 161 ft | 8 kts | 224° |
| 2026-04-24 11:05 | -20.43152 | 57.68045 | 162 ft | 14 kts | 285° |
| 2026-04-24 11:06 | -20.43118 | 57.67969 | 165 ft | 17 kts | 297° |
| 2026-04-24 11:06 | -20.43062 | 57.67854 | 168 ft | 16 kts | 298° |
| 2026-04-24 11:06 | -20.43054 | 57.67822 | 169 ft | 5 kts | 265° |
| 2026-04-24 11:06 | -20.43084 | 57.67786 | 170 ft | 8 kts | 219° |
| 2026-04-24 11:07 | -20.43115 | 57.67771 | 170 ft | 0 kts | 204° |